Bookmark and Share
Track history (hours):
 

Zarechensk

Last reported at 2014-Feb-11 14:19 UTC. Time now 2014-Apr-20 11:37 UTC.
Position N 58°44' W 006°51'.
Warning: this ship's position is months out of date.

Length 180 m; draft 10 m.

Type: Cargo ship. MMSI: 205561000.

NotesDate/timePositionNaut miles runAvg speedWind from/ knotsBaromVisibWave heightAir tempDewpointWater temp
2014-Feb-11 14:19N 58°44' W 006°51'8511.0
2014-Feb-11 06:34N 58°43' W 004°06'1211.5
2014-Feb-11 05:33N 58°43' W 003°44'1211.6
2014-Feb-11 04:33N 58°43' W 003°22'1211.6
2014-Feb-11 03:33N 58°41' W 002°60'7013.2
2014-Feb-10 22:17N 57°48' W 001°34'912.0
2014-Feb-10 21:33N 57°41' W 001°24'364 7.7
2014-Feb-08 22:33N 57°48' E 009°59'1211.6
2014-Feb-08 21:33N 57°49' E 010°20'1110.8
2014-Feb-08 20:33N 57°49' E 010°40'1111.4
2014-Feb-08 19:33N 57°42' E 010°57'1313.0
2014-Feb-08 18:33N 57°33' E 011°15'1313.2
2014-Feb-08 17:33N 57°23' E 011°29'1413.6
2014-Feb-08 16:32N 57°09' E 011°38'1313.1
2014-Feb-08 15:33N 56°57' E 011°46'1212.5
2014-Feb-08 14:33N 56°46' E 011°53'13110.0
2014-Feb-08 01:22N 54°37' E 011°08'910.9
2014-Feb-08 00:34N 54°33' E 011°22'1111.0
2014-Feb-07 23:34N 54°28' E 011°39'1110.7
2014-Feb-07 22:33N 54°26' E 011°57'9 9.1
2014-Feb-07 21:33N 54°29' E 012°12'1010.1
2014-Feb-07 20:34N 54°38' E 012°20'1010.3
2014-Feb-07 19:33N 54°43' E 012°35'1010.5
2014-Feb-07 18:33N 54°48' E 012°51'1311.9
2014-Feb-07 17:29N 54°53' E 013°11'1112.3
2014-Feb-07 16:34N 54°56' E 013°30'1211.8
2014-Feb-07 15:33N 55°01' E 013°49'1010.5
2014-Feb-07 14:33N 55°05' E 014°06'1111.1
2014-Feb-07 13:33N 55°14' E 014°18'1111.4
2014-Feb-07 12:33N 55°23' E 014°31'1111.4
2014-Feb-07 11:33N 55°30' E 014°46'1212.1
2014-Feb-07 10:33N 55°36' E 015°05'5212.8
2014-Feb-07 06:32N 56°02' E 016°24'31012.4
2014-Feb-06 05:33N 59°38' E 023°21'1312.7
2014-Feb-06 04:31N 59°42' E 023°46'1313.1
2014-Feb-06 03:32N 59°45' E 024°11'1313.2
2014-Feb-06 02:33N 59°48' E 024°36'5813.2
2014-Feb-05 22:10N 60°01' E 026°29'912.8
2014-Feb-05 21:26N 60°01' E 026°47'100 9.2
2014-Feb-05 10:32N 59°54' E 030°07'  

Dump ship's entire track history

sailing weather and tide predictions

Zarechensk — ONGC — position and weather